sensor_id;sensor_type;location;lat;lon;timestamp;P1;durP1;ratioP1;P2;durP2;ratioP2
53835;SDS011;39737;43.334;21.936;2023-07-31T00:02:54;5.90;;;2.30;;
53835;SDS011;39737;43.334;21.936;2023-07-31T00:15:54;4.82;;;2.50;;
53835;SDS011;39737;43.334;21.936;2023-07-31T00:18:40;4.93;;;3.08;;
53835;SDS011;39737;43.334;21.936;2023-07-31T00:21:27;5.88;;;2.95;;
53835;SDS011;39737;43.334;21.936;2023-07-31T00:24:15;3.80;;;2.90;;
53835;SDS011;39737;43.334;21.936;2023-07-31T00:27:02;5.88;;;3.30;;
53835;SDS011;39737;43.334;21.936;2023-07-31T00:29:48;4.85;;;2.95;;
53835;SDS011;39737;43.334;21.936;2023-07-31T00:32:34;5.85;;;3.38;;
53835;SDS011;39737;43.334;21.936;2023-07-31T00:38:33;5.88;;;3.28;;
53835;SDS011;39737;43.334;21.936;2023-07-31T00:41:20;5.90;;;3.50;;
53835;SDS011;39737;43.334;21.936;2023-07-31T00:44:07;3.80;;;3.40;;
53835;SDS011;39737;43.334;21.936;2023-07-31T00:46:53;5.70;;;3.47;;
53835;SDS011;39737;43.334;21.936;2023-07-31T00:49:39;15.27;;;4.05;;
53835;SDS011;39737;43.334;21.936;2023-07-31T00:52:25;7.68;;;3.80;;
53835;SDS011;39737;43.334;21.936;2023-07-31T00:55:14;6.43;;;4.18;;
53835;SDS011;39737;43.334;21.936;2023-07-31T00:58:00;7.35;;;3.42;;
53835;SDS011;39737;43.334;21.936;2023-07-31T01:00:47;4.70;;;3.10;;
53835;SDS011;39737;43.334;21.936;2023-07-31T01:03:33;6.80;;;4.13;;
53835;SDS011;39737;43.334;21.936;2023-07-31T01:09:10;4.43;;;3.28;;
53835;SDS011;39737;43.334;21.936;2023-07-31T01:12:00;4.20;;;2.65;;
53835;SDS011;39737;43.334;21.936;2023-07-31T01:14:50;6.45;;;3.60;;
53835;SDS011;39737;43.334;21.936;2023-07-31T01:17:42;5.28;;;3.75;;
53835;SDS011;39737;43.334;21.936;2023-07-31T01:29:01;7.10;;;3.70;;
53835;SDS011;39737;43.334;21.936;2023-07-31T01:31:50;6.47;;;3.85;;
53835;SDS011;39737;43.334;21.936;2023-07-31T01:34:37;8.60;;;3.38;;
53835;SDS011;39737;43.334;21.936;2023-07-31T01:37:29;5.40;;;3.20;;
53835;SDS011;39737;43.334;21.936;2023-07-31T01:40:16;5.85;;;3.58;;
53835;SDS011;39737;43.334;21.936;2023-07-31T01:43:03;5.45;;;3.30;;
53835;SDS011;39737;43.334;21.936;2023-07-31T01:45:49;6.80;;;4.57;;
53835;SDS011;39737;43.334;21.936;2023-07-31T01:48:36;8.95;;;4.72;;
53835;SDS011;39737;43.334;21.936;2023-07-31T01:51:22;10.13;;;4.38;;
53835;SDS011;39737;43.334;21.936;2023-07-31T01:54:09;8.77;;;4.43;;
53835;SDS011;39737;43.334;21.936;2023-07-31T01:56:55;5.10;;;4.10;;
53835;SDS011;39737;43.334;21.936;2023-07-31T02:00:00;7.78;;;4.07;;
53835;SDS011;39737;43.334;21.936;2023-07-31T02:02:56;6.00;;;4.10;;
53835;SDS011;39737;43.334;21.936;2023-07-31T02:05:46;6.30;;;4.10;;
53835;SDS011;39737;43.334;21.936;2023-07-31T02:08:32;6.97;;;4.45;;
53835;SDS011;39737;43.334;21.936;2023-07-31T02:11:18;5.53;;;4.28;;
53835;SDS011;39737;43.334;21.936;2023-07-31T02:14:07;7.10;;;4.60;;
53835;SDS011;39737;43.334;21.936;2023-07-31T02:16:53;7.32;;;4.35;;
53835;SDS011;39737;43.334;21.936;2023-07-31T02:19:40;7.05;;;4.43;;
53835;SDS011;39737;43.334;21.936;2023-07-31T02:22:26;6.50;;;3.88;;
53835;SDS011;39737;43.334;21.936;2023-07-31T02:25:13;6.80;;;4.00;;
53835;SDS011;39737;43.334;21.936;2023-07-31T02:28:00;5.65;;;3.53;;
53835;SDS011;39737;43.334;21.936;2023-07-31T02:30:46;11.43;;;4.93;;
53835;SDS011;39737;43.334;21.936;2023-07-31T02:33:32;9.07;;;4.88;;
53835;SDS011;39737;43.334;21.936;2023-07-31T02:36:19;11.63;;;5.30;;
53835;SDS011;39737;43.334;21.936;2023-07-31T02:39:05;8.32;;;4.93;;
53835;SDS011;39737;43.334;21.936;2023-07-31T02:41:51;5.45;;;4.43;;
53835;SDS011;39737;43.334;21.936;2023-07-31T02:44:38;6.75;;;4.82;;
53835;SDS011;39737;43.334;21.936;2023-07-31T02:47:24;7.78;;;4.20;;
53835;SDS011;39737;43.334;21.936;2023-07-31T02:50:10;5.60;;;3.97;;
53835;SDS011;39737;43.334;21.936;2023-07-31T02:52:56;7.50;;;4.90;;
53835;SDS011;39737;43.334;21.936;2023-07-31T02:55:43;8.13;;;5.93;;
53835;SDS011;39737;43.334;21.936;2023-07-31T02:58:29;11.25;;;5.40;;
53835;SDS011;39737;43.334;21.936;2023-07-31T03:01:15;15.90;;;5.90;;
53835;SDS011;39737;43.334;21.936;2023-07-31T03:04:01;6.78;;;4.80;;
53835;SDS011;39737;43.334;21.936;2023-07-31T03:06:48;8.52;;;5.45;;
53835;SDS011;39737;43.334;21.936;2023-07-31T03:09:34;10.73;;;5.13;;
53835;SDS011;39737;43.334;21.936;2023-07-31T03:12:20;7.70;;;5.25;;
53835;SDS011;39737;43.334;21.936;2023-07-31T03:15:07;9.13;;;5.88;;
53835;SDS011;39737;43.334;21.936;2023-07-31T03:17:53;9.20;;;5.78;;
53835;SDS011;39737;43.334;21.936;2023-07-31T03:20:43;8.13;;;5.25;;
53835;SDS011;39737;43.334;21.936;2023-07-31T03:23:32;8.32;;;5.03;;
53835;SDS011;39737;43.334;21.936;2023-07-31T03:26:18;8.02;;;5.22;;
53835;SDS011;39737;43.334;21.936;2023-07-31T03:29:04;9.63;;;6.18;;
53835;SDS011;39737;43.334;21.936;2023-07-31T03:31:51;8.55;;;6.28;;
53835;SDS011;39737;43.334;21.936;2023-07-31T03:34:37;10.90;;;6.32;;
53835;SDS011;39737;43.334;21.936;2023-07-31T03:37:24;9.75;;;6.32;;
53835;SDS011;39737;43.334;21.936;2023-07-31T03:40:10;9.60;;;6.60;;
53835;SDS011;39737;43.334;21.936;2023-07-31T03:42:57;11.95;;;6.72;;
53835;SDS011;39737;43.334;21.936;2023-07-31T03:45:43;10.35;;;6.53;;
53835;SDS011;39737;43.334;21.936;2023-07-31T03:48:29;12.27;;;6.57;;
53835;SDS011;39737;43.334;21.936;2023-07-31T03:51:16;11.27;;;5.70;;
53835;SDS011;39737;43.334;21.936;2023-07-31T03:54:03;10.63;;;6.05;;
53835;SDS011;39737;43.334;21.936;2023-07-31T03:56:49;16.35;;;6.65;;
53835;SDS011;39737;43.334;21.936;2023-07-31T03:59:35;9.13;;;6.05;;
53835;SDS011;39737;43.334;21.936;2023-07-31T04:02:22;9.38;;;6.20;;
53835;SDS011;39737;43.334;21.936;2023-07-31T04:05:08;7.72;;;5.47;;
53835;SDS011;39737;43.334;21.936;2023-07-31T04:07:56;9.40;;;5.88;;
53835;SDS011;39737;43.334;21.936;2023-07-31T04:10:42;8.63;;;5.78;;
53835;SDS011;39737;43.334;21.936;2023-07-31T04:13:31;6.78;;;5.22;;
53835;SDS011;39737;43.334;21.936;2023-07-31T04:16:20;8.57;;;5.57;;
53835;SDS011;39737;43.334;21.936;2023-07-31T04:19:08;8.52;;;4.53;;
53835;SDS011;39737;43.334;21.936;2023-07-31T04:21:56;9.60;;;6.70;;
53835;SDS011;39737;43.334;21.936;2023-07-31T04:24:42;9.38;;;5.30;;
53835;SDS011;39737;43.334;21.936;2023-07-31T04:27:29;9.02;;;5.35;;
53835;SDS011;39737;43.334;21.936;2023-07-31T04:30:16;13.32;;;6.40;;
53835;SDS011;39737;43.334;21.936;2023-07-31T04:33:03;10.35;;;6.25;;
53835;SDS011;39737;43.334;21.936;2023-07-31T04:35:52;10.77;;;6.93;;
53835;SDS011;39737;43.334;21.936;2023-07-31T04:38:39;12.18;;;7.18;;
53835;SDS011;39737;43.334;21.936;2023-07-31T04:41:27;12.48;;;7.22;;
53835;SDS011;39737;43.334;21.936;2023-07-31T04:44:13;11.95;;;6.88;;
53835;SDS011;39737;43.334;21.936;2023-07-31T04:47:00;10.07;;;6.13;;
53835;SDS011;39737;43.334;21.936;2023-07-31T04:49:46;10.20;;;6.97;;
53835;SDS011;39737;43.334;21.936;2023-07-31T04:52:32;16.50;;;7.90;;
53835;SDS011;39737;43.334;21.936;2023-07-31T04:55:18;13.95;;;6.60;;
53835;SDS011;39737;43.334;21.936;2023-07-31T04:58:05;9.38;;;6.45;;
53835;SDS011;39737;43.334;21.936;2023-07-31T05:00:55;11.45;;;7.25;;
53835;SDS011;39737;43.334;21.936;2023-07-31T05:03:42;10.98;;;6.28;;
53835;SDS011;39737;43.334;21.936;2023-07-31T05:06:28;8.90;;;6.22;;
53835;SDS011;39737;43.334;21.936;2023-07-31T05:09:15;8.80;;;5.22;;
53835;SDS011;39737;43.334;21.936;2023-07-31T05:12:01;14.43;;;7.30;;
53835;SDS011;39737;43.334;21.936;2023-07-31T05:14:48;10.20;;;5.95;;
53835;SDS011;39737;43.334;21.936;2023-07-31T05:17:34;8.07;;;4.97;;
53835;SDS011;39737;43.334;21.936;2023-07-31T05:20:21;11.43;;;7.05;;
53835;SDS011;39737;43.334;21.936;2023-07-31T05:23:07;10.70;;;6.43;;
53835;SDS011;39737;43.334;21.936;2023-07-31T05:25:54;9.23;;;5.38;;
53835;SDS011;39737;43.334;21.936;2023-07-31T05:28:40;10.65;;;6.90;;
53835;SDS011;39737;43.334;21.936;2023-07-31T05:31:26;8.50;;;6.07;;
53835;SDS011;39737;43.334;21.936;2023-07-31T05:34:12;10.02;;;6.68;;
53835;SDS011;39737;43.334;21.936;2023-07-31T05:36:59;8.07;;;5.53;;
53835;SDS011;39737;43.334;21.936;2023-07-31T05:39:46;12.20;;;6.75;;
53835;SDS011;39737;43.334;21.936;2023-07-31T05:42:34;10.05;;;6.57;;
53835;SDS011;39737;43.334;21.936;2023-07-31T05:45:26;12.10;;;6.57;;
53835;SDS011;39737;43.334;21.936;2023-07-31T05:48:12;11.43;;;6.50;;
53835;SDS011;39737;43.334;21.936;2023-07-31T05:50:59;10.00;;;6.53;;
53835;SDS011;39737;43.334;21.936;2023-07-31T05:53:45;13.98;;;5.97;;
53835;SDS011;39737;43.334;21.936;2023-07-31T05:56:47;7.03;;;5.40;;
53835;SDS011;39737;43.334;21.936;2023-07-31T05:59:33;9.60;;;5.95;;
53835;SDS011;39737;43.334;21.936;2023-07-31T06:02:19;8.35;;;4.93;;
53835;SDS011;39737;43.334;21.936;2023-07-31T06:05:06;8.68;;;6.13;;
53835;SDS011;39737;43.334;21.936;2023-07-31T06:07:52;9.07;;;5.45;;
53835;SDS011;39737;43.334;21.936;2023-07-31T06:10:38;8.18;;;5.63;;
53835;SDS011;39737;43.334;21.936;2023-07-31T06:13:25;8.68;;;5.15;;
53835;SDS011;39737;43.334;21.936;2023-07-31T06:16:11;6.72;;;4.90;;
53835;SDS011;39737;43.334;21.936;2023-07-31T06:18:57;7.13;;;4.72;;
53835;SDS011;39737;43.334;21.936;2023-07-31T06:21:44;8.30;;;6.43;;
53835;SDS011;39737;43.334;21.936;2023-07-31T06:24:30;8.75;;;5.13;;
53835;SDS011;39737;43.334;21.936;2023-07-31T06:27:17;13.18;;;5.80;;
53835;SDS011;39737;43.334;21.936;2023-07-31T06:30:06;10.60;;;5.97;;
53835;SDS011;39737;43.334;21.936;2023-07-31T06:32:52;10.98;;;6.10;;
53835;SDS011;39737;43.334;21.936;2023-07-31T06:35:40;10.60;;;5.70;;
53835;SDS011;39737;43.334;21.936;2023-07-31T06:38:27;12.52;;;5.05;;
53835;SDS011;39737;43.334;21.936;2023-07-31T06:41:13;10.15;;;6.18;;
53835;SDS011;39737;43.334;21.936;2023-07-31T06:43:59;9.38;;;6.05;;
53835;SDS011;39737;43.334;21.936;2023-07-31T06:46:46;8.15;;;6.10;;
53835;SDS011;39737;43.334;21.936;2023-07-31T06:49:32;8.48;;;5.03;;
53835;SDS011;39737;43.334;21.936;2023-07-31T06:52:18;10.38;;;6.63;;
53835;SDS011;39737;43.334;21.936;2023-07-31T06:55:20;9.50;;;5.60;;
53835;SDS011;39737;43.334;21.936;2023-07-31T06:58:07;14.27;;;6.35;;
53835;SDS011;39737;43.334;21.936;2023-07-31T07:00:53;11.80;;;6.68;;
53835;SDS011;39737;43.334;21.936;2023-07-31T07:03:44;11.30;;;6.45;;
53835;SDS011;39737;43.334;21.936;2023-07-31T07:06:31;10.82;;;6.45;;
53835;SDS011;39737;43.334;21.936;2023-07-31T07:09:19;9.18;;;5.32;;
53835;SDS011;39737;43.334;21.936;2023-07-31T07:12:05;14.30;;;6.25;;
53835;SDS011;39737;43.334;21.936;2023-07-31T07:14:55;13.20;;;7.32;;
53835;SDS011;39737;43.334;21.936;2023-07-31T07:17:43;8.77;;;5.25;;
53835;SDS011;39737;43.334;21.936;2023-07-31T07:20:29;8.15;;;5.22;;
53835;SDS011;39737;43.334;21.936;2023-07-31T07:23:21;9.35;;;5.85;;
53835;SDS011;39737;43.334;21.936;2023-07-31T07:26:07;8.60;;;4.47;;
53835;SDS011;39737;43.334;21.936;2023-07-31T07:28:53;6.85;;;4.80;;
53835;SDS011;39737;43.334;21.936;2023-07-31T07:31:39;10.93;;;6.28;;
53835;SDS011;39737;43.334;21.936;2023-07-31T07:34:26;11.15;;;5.78;;
53835;SDS011;39737;43.334;21.936;2023-07-31T07:37:13;8.73;;;5.35;;
53835;SDS011;39737;43.334;21.936;2023-07-31T07:40:01;9.90;;;4.78;;
53835;SDS011;39737;43.334;21.936;2023-07-31T07:42:49;8.00;;;5.38;;
53835;SDS011;39737;43.334;21.936;2023-07-31T07:45:35;8.13;;;5.07;;
53835;SDS011;39737;43.334;21.936;2023-07-31T07:48:21;6.55;;;4.50;;
53835;SDS011;39737;43.334;21.936;2023-07-31T07:51:08;10.18;;;4.97;;
53835;SDS011;39737;43.334;21.936;2023-07-31T07:53:54;6.50;;;4.38;;
53835;SDS011;39737;43.334;21.936;2023-07-31T07:56:40;6.18;;;4.35;;
53835;SDS011;39737;43.334;21.936;2023-07-31T07:59:27;5.32;;;3.90;;
53835;SDS011;39737;43.334;21.936;2023-07-31T08:02:13;7.32;;;4.18;;
53835;SDS011;39737;43.334;21.936;2023-07-31T08:05:20;8.27;;;4.85;;
53835;SDS011;39737;43.334;21.936;2023-07-31T08:08:28;7.90;;;4.60;;
53835;SDS011;39737;43.334;21.936;2023-07-31T08:11:14;11.57;;;5.90;;
53835;SDS011;39737;43.334;21.936;2023-07-31T08:14:01;9.23;;;5.88;;
53835;SDS011;39737;43.334;21.936;2023-07-31T08:16:47;10.45;;;5.82;;
53835;SDS011;39737;43.334;21.936;2023-07-31T08:19:33;19.15;;;6.40;;
53835;SDS011;39737;43.334;21.936;2023-07-31T08:22:21;10.00;;;5.95;;
53835;SDS011;39737;43.334;21.936;2023-07-31T08:25:08;7.68;;;5.00;;
53835;SDS011;39737;43.334;21.936;2023-07-31T08:27:54;7.85;;;5.18;;
53835;SDS011;39737;43.334;21.936;2023-07-31T08:30:40;6.45;;;4.90;;
53835;SDS011;39737;43.334;21.936;2023-07-31T08:33:27;8.43;;;5.60;;
53835;SDS011;39737;43.334;21.936;2023-07-31T08:36:13;10.98;;;6.18;;
53835;SDS011;39737;43.334;21.936;2023-07-31T08:39:00;9.23;;;6.05;;
53835;SDS011;39737;43.334;21.936;2023-07-31T08:41:46;8.45;;;5.07;;
53835;SDS011;39737;43.334;21.936;2023-07-31T08:44:33;10.50;;;6.20;;
53835;SDS011;39737;43.334;21.936;2023-07-31T08:47:19;9.02;;;5.20;;
53835;SDS011;39737;43.334;21.936;2023-07-31T08:50:08;12.48;;;6.05;;
53835;SDS011;39737;43.334;21.936;2023-07-31T08:52:55;6.85;;;4.95;;
53835;SDS011;39737;43.334;21.936;2023-07-31T08:55:44;6.35;;;4.30;;
53835;SDS011;39737;43.334;21.936;2023-07-31T08:58:31;7.22;;;4.32;;
53835;SDS011;39737;43.334;21.936;2023-07-31T09:01:17;5.88;;;4.55;;
53835;SDS011;39737;43.334;21.936;2023-07-31T09:04:04;10.50;;;5.35;;
53835;SDS011;39737;43.334;21.936;2023-07-31T09:06:52;6.32;;;4.35;;
53835;SDS011;39737;43.334;21.936;2023-07-31T09:09:41;5.80;;;4.07;;
53835;SDS011;39737;43.334;21.936;2023-07-31T09:12:28;8.32;;;4.53;;
53835;SDS011;39737;43.334;21.936;2023-07-31T09:15:17;6.03;;;3.67;;
53835;SDS011;39737;43.334;21.936;2023-07-31T09:18:54;6.32;;;4.97;;
53835;SDS011;39737;43.334;21.936;2023-07-31T09:21:49;6.28;;;4.00;;
53835;SDS011;39737;43.334;21.936;2023-07-31T09:24:55;7.22;;;3.88;;
53835;SDS011;39737;43.334;21.936;2023-07-31T09:27:56;5.32;;;3.50;;
53835;SDS011;39737;43.334;21.936;2023-07-31T09:30:47;9.27;;;3.80;;
53835;SDS011;39737;43.334;21.936;2023-07-31T09:33:34;2.95;;;2.60;;
53835;SDS011;39737;43.334;21.936;2023-07-31T09:39:51;8.30;;;3.50;;
53835;SDS011;39737;43.334;21.936;2023-07-31T09:42:51;4.88;;;3.38;;
53835;SDS011;39737;43.334;21.936;2023-07-31T09:45:38;5.30;;;3.20;;
53835;SDS011;39737;43.334;21.936;2023-07-31T09:48:38;3.38;;;2.38;;
53835;SDS011;39737;43.334;21.936;2023-07-31T09:51:38;6.60;;;3.13;;
53835;SDS011;39737;43.334;21.936;2023-07-31T09:54:27;3.50;;;2.78;;
53835;SDS011;39737;43.334;21.936;2023-07-31T09:57:14;4.43;;;3.00;;
53835;SDS011;39737;43.334;21.936;2023-07-31T10:00:58;3.97;;;2.42;;
53835;SDS011;39737;43.334;21.936;2023-07-31T10:03:48;5.05;;;2.65;;
53835;SDS011;39737;43.334;21.936;2023-07-31T10:06:35;2.22;;;1.67;;
53835;SDS011;39737;43.334;21.936;2023-07-31T10:09:49;2.00;;;1.80;;
53835;SDS011;39737;43.334;21.936;2023-07-31T10:12:36;3.03;;;1.77;;
53835;SDS011;39737;43.334;21.936;2023-07-31T10:15:25;1.92;;;1.52;;
53835;SDS011;39737;43.334;21.936;2023-07-31T10:18:24;2.33;;;1.73;;
53835;SDS011;39737;43.334;21.936;2023-07-31T10:21:35;2.83;;;1.70;;
53835;SDS011;39737;43.334;21.936;2023-07-31T10:24:57;2.97;;;2.08;;
53835;SDS011;39737;43.334;21.936;2023-07-31T10:27:46;1.90;;;1.58;;
53835;SDS011;39737;43.334;21.936;2023-07-31T10:30:33;3.05;;;1.42;;
53835;SDS011;39737;43.334;21.936;2023-07-31T10:36:33;9.35;;;2.08;;
53835;SDS011;39737;43.334;21.936;2023-07-31T10:39:52;3.38;;;1.83;;
53835;SDS011;39737;43.334;21.936;2023-07-31T10:42:52;2.88;;;1.77;;
53835;SDS011;39737;43.334;21.936;2023-07-31T10:45:45;2.10;;;1.70;;
53835;SDS011;39737;43.334;21.936;2023-07-31T10:48:38;2.00;;;1.38;;
53835;SDS011;39737;43.334;21.936;2023-07-31T10:51:33;2.13;;;1.20;;
53835;SDS011;39737;43.334;21.936;2023-07-31T10:54:24;2.80;;;1.77;;
53835;SDS011;39737;43.334;21.936;2023-07-31T10:57:19;1.40;;;1.05;;
53835;SDS011;39737;43.334;21.936;2023-07-31T11:00:18;1.67;;;1.27;;
53835;SDS011;39737;43.334;21.936;2023-07-31T11:03:07;2.03;;;1.33;;
53835;SDS011;39737;43.334;21.936;2023-07-31T11:06:00;3.47;;;1.70;;
53835;SDS011;39737;43.334;21.936;2023-07-31T11:08:55;1.88;;;1.30;;
53835;SDS011;39737;43.334;21.936;2023-07-31T11:11:53;1.75;;;1.23;;
53835;SDS011;39737;43.334;21.936;2023-07-31T11:14:58;2.92;;;1.70;;
53835;SDS011;39737;43.334;21.936;2023-07-31T11:18:01;1.45;;;1.33;;
53835;SDS011;39737;43.334;21.936;2023-07-31T11:20:56;2.00;;;1.20;;
53835;SDS011;39737;43.334;21.936;2023-07-31T11:24:01;11.45;;;1.40;;
53835;SDS011;39737;43.334;21.936;2023-07-31T11:26:49;2.38;;;1.10;;
53835;SDS011;39737;43.334;21.936;2023-07-31T11:29:40;1.20;;;1.02;;
53835;SDS011;39737;43.334;21.936;2023-07-31T11:32:27;1.67;;;1.35;;
53835;SDS011;39737;43.334;21.936;2023-07-31T11:35:14;2.20;;;1.65;;
53835;SDS011;39737;43.334;21.936;2023-07-31T11:38:00;1.95;;;1.65;;
53835;SDS011;39737;43.334;21.936;2023-07-31T11:40:47;2.25;;;1.42;;
53835;SDS011;39737;43.334;21.936;2023-07-31T11:43:33;2.78;;;1.42;;
53835;SDS011;39737;43.334;21.936;2023-07-31T11:46:24;1.77;;;1.10;;
53835;SDS011;39737;43.334;21.936;2023-07-31T11:49:10;1.42;;;1.00;;
53835;SDS011;39737;43.334;21.936;2023-07-31T11:51:57;1.95;;;1.15;;
53835;SDS011;39737;43.334;21.936;2023-07-31T11:54:47;2.17;;;1.40;;
53835;SDS011;39737;43.334;21.936;2023-07-31T11:57:37;5.65;;;1.20;;
53835;SDS011;39737;43.334;21.936;2023-07-31T12:00:25;2.00;;;1.25;;
53835;SDS011;39737;43.334;21.936;2023-07-31T12:03:15;3.25;;;0.90;;
53835;SDS011;39737;43.334;21.936;2023-07-31T12:06:04;1.08;;;0.95;;
53835;SDS011;39737;43.334;21.936;2023-07-31T12:09:00;2.37;;;1.10;;
53835;SDS011;39737;43.334;21.936;2023-07-31T12:11:49;1.85;;;1.20;;
53835;SDS011;39737;43.334;21.936;2023-07-31T12:19:31;0.70;;;0.70;;
53835;SDS011;39737;43.334;21.936;2023-07-31T12:22:21;1.15;;;0.90;;
53835;SDS011;39737;43.334;21.936;2023-07-31T12:25:08;3.38;;;1.10;;
53835;SDS011;39737;43.334;21.936;2023-07-31T12:28:04;1.50;;;1.00;;
53835;SDS011;39737;43.334;21.936;2023-07-31T12:30:56;0.88;;;0.50;;
53835;SDS011;39737;43.334;21.936;2023-07-31T12:33:49;0.70;;;0.70;;
53835;SDS011;39737;43.334;21.936;2023-07-31T12:36:36;0.80;;;0.70;;
53835;SDS011;39737;43.334;21.936;2023-07-31T12:39:26;1.40;;;0.95;;
53835;SDS011;39737;43.334;21.936;2023-07-31T12:59:24;1.20;;;0.80;;
53835;SDS011;39737;43.334;21.936;2023-07-31T13:02:16;1.00;;;0.45;;
53835;SDS011;39737;43.334;21.936;2023-07-31T13:05:18;0.88;;;0.50;;
53835;SDS011;39737;43.334;21.936;2023-07-31T13:08:10;6.50;;;0.77;;
53835;SDS011;39737;43.334;21.936;2023-07-31T13:11:07;0.63;;;0.63;;
53835;SDS011;39737;43.334;21.936;2023-07-31T13:13:55;1.65;;;0.70;;
53835;SDS011;39737;43.334;21.936;2023-07-31T13:16:42;0.95;;;0.73;;
53835;SDS011;39737;43.334;21.936;2023-07-31T13:19:29;0.73;;;0.73;;
53835;SDS011;39737;43.334;21.936;2023-07-31T13:22:15;4.35;;;0.73;;
53835;SDS011;39737;43.334;21.936;2023-07-31T13:25:02;1.95;;;0.90;;
53835;SDS011;39737;43.334;21.936;2023-07-31T13:27:52;1.23;;;1.13;;
53835;SDS011;39737;43.334;21.936;2023-07-31T13:30:44;2.50;;;1.25;;
53835;SDS011;39737;43.334;21.936;2023-07-31T13:34:14;1.27;;;0.68;;
53835;SDS011;39737;43.334;21.936;2023-07-31T13:37:04;1.17;;;1.02;;
53835;SDS011;39737;43.334;21.936;2023-07-31T13:39:58;1.55;;;0.55;;
53835;SDS011;39737;43.334;21.936;2023-07-31T13:42:54;1.20;;;0.98;;
53835;SDS011;39737;43.334;21.936;2023-07-31T13:46:08;0.70;;;0.55;;
53835;SDS011;39737;43.334;21.936;2023-07-31T13:48:56;0.90;;;0.75;;
53835;SDS011;39737;43.334;21.936;2023-07-31T13:51:43;1.40;;;0.88;;
53835;SDS011;39737;43.334;21.936;2023-07-31T13:54:30;4.78;;;0.98;;
53835;SDS011;39737;43.334;21.936;2023-07-31T13:57:16;4.07;;;1.80;;
53835;SDS011;39737;43.334;21.936;2023-07-31T14:00:10;11.95;;;0.77;;
53835;SDS011;39737;43.334;21.936;2023-07-31T14:03:02;6.05;;;0.90;;
53835;SDS011;39737;43.334;21.936;2023-07-31T14:05:49;1.67;;;0.88;;
53835;SDS011;39737;43.334;21.936;2023-07-31T14:08:35;0.60;;;0.50;;
53835;SDS011;39737;43.334;21.936;2023-07-31T14:11:24;1.13;;;0.60;;
53835;SDS011;39737;43.334;21.936;2023-07-31T14:14:10;2.90;;;0.90;;
53835;SDS011;39737;43.334;21.936;2023-07-31T14:16:57;1.15;;;0.65;;
53835;SDS011;39737;43.334;21.936;2023-07-31T14:19:44;0.70;;;0.70;;
53835;SDS011;39737;43.334;21.936;2023-07-31T14:22:33;1.02;;;0.50;;
53835;SDS011;39737;43.334;21.936;2023-07-31T14:25:50;0.93;;;0.50;;
53835;SDS011;39737;43.334;21.936;2023-07-31T14:29:50;0.50;;;0.30;;
53835;SDS011;39737;43.334;21.936;2023-07-31T14:32:55;1.92;;;0.70;;
53835;SDS011;39737;43.334;21.936;2023-07-31T14:36:06;2.45;;;0.90;;
53835;SDS011;39737;43.334;21.936;2023-07-31T14:40:07;0.80;;;0.68;;
53835;SDS011;39737;43.334;21.936;2023-07-31T14:43:54;1.17;;;0.70;;
53835;SDS011;39737;43.334;21.936;2023-07-31T14:46:43;0.95;;;0.73;;
53835;SDS011;39737;43.334;21.936;2023-07-31T14:50:07;0.80;;;0.80;;
53835;SDS011;39737;43.334;21.936;2023-07-31T14:56:23;1.20;;;0.80;;
53835;SDS011;39737;43.334;21.936;2023-07-31T15:00:07;0.98;;;0.60;;
53835;SDS011;39737;43.334;21.936;2023-07-31T15:03:11;1.60;;;1.00;;
53835;SDS011;39737;43.334;21.936;2023-07-31T15:06:06;0.75;;;0.55;;
53835;SDS011;39737;43.334;21.936;2023-07-31T15:09:04;0.80;;;0.60;;
53835;SDS011;39737;43.334;21.936;2023-07-31T15:12:07;0.88;;;0.80;;
53835;SDS011;39737;43.334;21.936;2023-07-31T15:14:58;0.95;;;0.65;;
53835;SDS011;39737;43.334;21.936;2023-07-31T15:17:47;2.40;;;0.90;;
53835;SDS011;39737;43.334;21.936;2023-07-31T15:20:48;0.95;;;0.60;;
53835;SDS011;39737;43.334;21.936;2023-07-31T15:23:38;1.60;;;0.83;;
53835;SDS011;39737;43.334;21.936;2023-07-31T15:26:25;1.92;;;0.70;;
53835;SDS011;39737;43.334;21.936;2023-07-31T15:29:11;0.77;;;0.63;;
53835;SDS011;39737;43.334;21.936;2023-07-31T15:32:02;1.67;;;0.77;;
53835;SDS011;39737;43.334;21.936;2023-07-31T15:34:50;0.88;;;0.60;;
53835;SDS011;39737;43.334;21.936;2023-07-31T15:37:36;2.08;;;0.70;;
53835;SDS011;39737;43.334;21.936;2023-07-31T15:40:23;0.68;;;0.65;;
53835;SDS011;39737;43.334;21.936;2023-07-31T15:43:10;0.60;;;0.52;;
53835;SDS011;39737;43.334;21.936;2023-07-31T15:45:57;0.45;;;0.40;;
53835;SDS011;39737;43.334;21.936;2023-07-31T15:48:43;0.52;;;0.40;;
53835;SDS011;39737;43.334;21.936;2023-07-31T15:51:29;1.52;;;0.57;;
53835;SDS011;39737;43.334;21.936;2023-07-31T15:54:15;1.23;;;0.52;;
53835;SDS011;39737;43.334;21.936;2023-07-31T15:57:01;0.60;;;0.55;;
53835;SDS011;39737;43.334;21.936;2023-07-31T15:59:48;0.57;;;0.50;;
53835;SDS011;39737;43.334;21.936;2023-07-31T16:02:34;1.15;;;0.60;;
53835;SDS011;39737;43.334;21.936;2023-07-31T16:05:21;0.47;;;0.45;;
53835;SDS011;39737;43.334;21.936;2023-07-31T16:08:07;3.72;;;0.60;;
53835;SDS011;39737;43.334;21.936;2023-07-31T16:10:54;0.85;;;0.77;;
53835;SDS011;39737;43.334;21.936;2023-07-31T16:13:42;1.38;;;0.85;;
53835;SDS011;39737;43.334;21.936;2023-07-31T16:16:28;2.50;;;0.88;;
53835;SDS011;39737;43.334;21.936;2023-07-31T16:19:15;2.42;;;0.95;;
53835;SDS011;39737;43.334;21.936;2023-07-31T16:22:03;1.08;;;0.70;;
53835;SDS011;39737;43.334;21.936;2023-07-31T16:24:49;0.70;;;0.57;;
53835;SDS011;39737;43.334;21.936;2023-07-31T16:27:39;4.25;;;0.80;;
53835;SDS011;39737;43.334;21.936;2023-07-31T16:30:27;1.20;;;0.80;;
53835;SDS011;39737;43.334;21.936;2023-07-31T16:33:26;1.55;;;0.90;;
53835;SDS011;39737;43.334;21.936;2023-07-31T16:36:14;1.13;;;1.00;;
53835;SDS011;39737;43.334;21.936;2023-07-31T16:39:12;0.95;;;0.90;;
53835;SDS011;39737;43.334;21.936;2023-07-31T16:42:25;1.98;;;1.17;;
53835;SDS011;39737;43.334;21.936;2023-07-31T16:45:37;2.08;;;1.00;;
53835;SDS011;39737;43.334;21.936;2023-07-31T16:48:34;1.55;;;0.70;;
53835;SDS011;39737;43.334;21.936;2023-07-31T16:55:12;1.08;;;0.82;;
53835;SDS011;39737;43.334;21.936;2023-07-31T17:18:42;2.35;;;1.20;;
53835;SDS011;39737;43.334;21.936;2023-07-31T17:22:01;1.30;;;1.05;;
53835;SDS011;39737;43.334;21.936;2023-07-31T17:28:39;2.15;;;1.17;;
53835;SDS011;39737;43.334;21.936;2023-07-31T17:31:29;4.25;;;1.33;;
53835;SDS011;39737;43.334;21.936;2023-07-31T17:35:06;0.65;;;0.60;;
53835;SDS011;39737;43.334;21.936;2023-07-31T17:37:56;1.73;;;0.90;;
53835;SDS011;39737;43.334;21.936;2023-07-31T17:41:18;1.85;;;1.00;;
53835;SDS011;39737;43.334;21.936;2023-07-31T17:44:08;0.80;;;0.80;;
53835;SDS011;39737;43.334;21.936;2023-07-31T17:46:59;2.58;;;1.00;;
53835;SDS011;39737;43.334;21.936;2023-07-31T17:49:47;1.48;;;0.88;;
53835;SDS011;39737;43.334;21.936;2023-07-31T17:52:33;1.05;;;0.80;;
53835;SDS011;39737;43.334;21.936;2023-07-31T17:55:43;2.17;;;0.73;;
53835;SDS011;39737;43.334;21.936;2023-07-31T17:58:40;3.22;;;0.80;;
53835;SDS011;39737;43.334;21.936;2023-07-31T18:01:26;1.38;;;0.65;;
53835;SDS011;39737;43.334;21.936;2023-07-31T18:04:19;1.17;;;0.93;;
53835;SDS011;39737;43.334;21.936;2023-07-31T18:12:46;1.42;;;0.90;;
53835;SDS011;39737;43.334;21.936;2023-07-31T18:25:22;2.72;;;1.40;;
53835;SDS011;39737;43.334;21.936;2023-07-31T18:28:36;2.55;;;1.17;;
53835;SDS011;39737;43.334;21.936;2023-07-31T18:35:43;2.15;;;1.08;;
53835;SDS011;39737;43.334;21.936;2023-07-31T18:38:30;2.25;;;1.25;;
53835;SDS011;39737;43.334;21.936;2023-07-31T18:41:18;1.73;;;1.13;;